createdAt,value
2023-04-03T00:00:55.491Z,98.19
2023-04-03T00:03:23.826Z,99.09
2023-04-03T00:05:52.394Z,100.00
2023-04-03T00:08:20.783Z,100.00
2023-04-03T00:10:49.701Z,100.00
2023-04-03T00:13:18.683Z,100.00
2023-04-03T00:15:47.144Z,100.00
2023-04-03T00:18:19.135Z,100.00
2023-04-03T00:20:47.222Z,100.00
2023-04-03T00:23:15.877Z,100.00
2023-04-03T00:25:44.334Z,100.00
2023-04-03T00:28:12.828Z,100.00
2023-04-03T00:30:41.081Z,100.00
2023-04-03T00:33:09.369Z,100.00
2023-04-03T00:35:39.092Z,100.00
2023-04-03T00:38:07.868Z,100.00
2023-04-03T00:40:44.900Z,100.00
2023-04-03T00:43:17.604Z,100.00
2023-04-03T00:45:47.251Z,100.00
2023-04-03T00:48:19.143Z,100.00
2023-04-03T00:50:50.731Z,100.00
2023-04-03T00:53:21.142Z,100.00
2023-04-03T00:55:50.584Z,100.00
2023-04-03T00:58:22.109Z,100.00
2023-04-03T01:00:58.497Z,100.00
2023-04-03T01:03:27.277Z,100.00
2023-04-03T01:05:57.920Z,100.00
2023-04-03T01:08:29.157Z,100.00
2023-04-03T01:11:00.106Z,100.00
2023-04-03T01:13:31.548Z,100.00
2023-04-03T01:16:03.065Z,100.00
2023-04-03T01:18:32.865Z,100.00
2023-04-03T01:21:32.797Z,100.00
2023-04-03T01:24:13.477Z,100.00
2023-04-03T01:26:41.938Z,100.00
2023-04-03T01:29:10.063Z,100.00
2023-04-03T01:31:50.797Z,100.00
2023-04-03T01:34:19.093Z,100.00
2023-04-03T01:36:47.305Z,100.00
2023-04-03T01:39:15.467Z,100.00
2023-04-03T01:41:43.580Z,100.00
2023-04-03T01:44:24.805Z,100.00
2023-04-03T01:46:54.231Z,100.00
2023-04-03T01:49:25.930Z,100.00
2023-04-03T01:51:53.968Z,100.00
2023-04-03T01:54:22.155Z,100.00
2023-04-03T01:56:50.270Z,100.00
2023-04-03T01:59:20.424Z,100.00
2023-04-03T02:01:48.665Z,100.00
2023-04-03T02:04:18.274Z,100.00
2023-04-03T02:06:46.551Z,100.00
2023-04-03T02:09:14.620Z,100.00
2023-04-03T02:11:42.902Z,100.00
2023-04-03T02:14:11.693Z,100.00
2023-04-03T02:16:40.428Z,100.00
2023-04-03T02:19:09.109Z,100.00
2023-04-03T02:21:38.590Z,100.00
2023-04-03T02:24:07.461Z,100.00
2023-04-03T02:26:36.590Z,100.00
2023-04-03T02:29:04.867Z,100.00
2023-04-03T02:31:33.106Z,100.00
2023-04-03T02:34:03.276Z,100.00
2023-04-03T02:36:32.869Z,100.00
2023-04-03T02:39:07.432Z,100.00
2023-04-03T02:41:37.060Z,100.00
2023-04-03T02:44:15.027Z,100.00
2023-04-03T02:46:45.963Z,100.00
2023-04-03T02:49:20.587Z,100.00
2023-04-03T02:51:48.803Z,100.00
2023-04-03T02:54:18.288Z,100.00
2023-04-03T02:56:51.466Z,100.00
2023-04-03T02:59:19.587Z,100.00
2023-04-03T03:01:48.316Z,100.00
2023-04-03T03:04:19.820Z,100.00
2023-04-03T03:06:48.513Z,100.00
2023-04-03T03:09:18.187Z,100.00
2023-04-03T03:11:46.340Z,100.00
2023-04-03T03:14:14.492Z,100.00
2023-04-03T03:16:47.119Z,100.00
2023-04-03T03:19:15.253Z,100.00
2023-04-03T03:21:43.635Z,100.00
2023-04-03T03:24:18.402Z,100.00
2023-04-03T03:26:46.569Z,100.00
2023-04-03T03:29:15.278Z,100.00
2023-04-03T03:31:43.411Z,100.00
2023-04-03T03:34:11.413Z,100.00
2023-04-03T03:36:40.715Z,100.00
2023-04-03T03:39:08.916Z,100.00
2023-04-03T03:41:38.565Z,100.00
2023-04-03T03:44:08.553Z,100.00
2023-04-03T03:46:36.858Z,100.00
2023-04-03T03:49:07.953Z,100.00
2023-04-03T03:51:36.505Z,100.00
2023-04-03T03:54:05.476Z,100.00
2023-04-03T03:56:34.506Z,100.00
2023-04-03T03:59:06.599Z,100.00
2023-04-03T04:01:35.238Z,100.00
2023-04-03T04:04:03.857Z,100.00
2023-04-03T04:06:33.665Z,100.00
2023-04-03T04:09:05.907Z,100.00
2023-04-03T04:11:35.566Z,100.00
2023-04-03T04:14:06.025Z,100.00
2023-04-03T04:16:34.494Z,100.00
2023-04-03T04:19:09.026Z,100.00
2023-04-03T04:21:39.274Z,100.00
2023-04-03T04:24:08.848Z,100.00
2023-04-03T04:26:37.497Z,100.00
2023-04-03T04:29:12.931Z,100.00
2023-04-03T04:31:41.061Z,100.00
2023-04-03T04:34:09.653Z,100.00
2023-04-03T04:36:39.069Z,100.00
2023-04-03T04:39:07.671Z,100.00
2023-04-03T04:41:36.150Z,100.00
2023-04-03T04:44:05.907Z,100.00
2023-04-03T04:46:35.948Z,100.00
2023-04-03T04:49:06.850Z,100.00
2023-04-03T04:51:44.508Z,100.00
2023-04-03T04:54:21.754Z,100.00
2023-04-03T04:56:50.929Z,100.00
2023-04-03T05:01:54.693Z,100.00
2023-04-03T05:04:23.231Z,100.00
2023-04-03T05:06:56.170Z,100.00
2023-04-03T05:09:28.181Z,100.00
2023-04-03T05:11:57.785Z,100.00
2023-04-03T05:14:29.164Z,100.00
2023-04-03T05:17:03.425Z,100.00
2023-04-03T05:19:34.615Z,100.00
2023-04-03T05:22:04.429Z,100.00
2023-04-03T05:24:32.510Z,100.00
2023-04-03T05:27:01.106Z,100.00
2023-04-03T05:29:30.325Z,100.00
2023-04-03T05:32:00.686Z,100.00
2023-04-03T05:34:30.780Z,100.00
2023-04-03T05:36:59.267Z,100.00
2023-04-03T05:39:29.550Z,100.00
2023-04-03T05:42:00.122Z,100.00
2023-04-03T05:44:29.166Z,100.00
2023-04-03T05:46:57.232Z,100.00
2023-04-03T05:49:25.337Z,100.00
2023-04-03T05:51:55.082Z,100.00
2023-04-03T05:54:27.957Z,100.00
2023-04-03T05:57:03.914Z,100.00
2023-04-03T05:59:32.006Z,100.00
2023-04-03T06:02:02.185Z,100.00
2023-04-03T06:04:30.973Z,100.00
2023-04-03T06:07:00.716Z,100.00
2023-04-03T06:09:30.794Z,100.00
2023-04-03T06:11:59.848Z,100.00
2023-04-03T06:14:30.069Z,100.00
2023-04-03T06:16:58.223Z,100.00
2023-04-03T06:19:29.782Z,100.00
2023-04-03T06:22:00.381Z,100.00
2023-04-03T06:24:29.154Z,100.00
2023-04-03T06:26:57.504Z,100.00
2023-04-03T06:29:25.973Z,100.00
2023-04-03T06:31:54.317Z,100.00
2023-04-03T06:34:22.682Z,100.00
2023-04-03T06:36:53.605Z,100.00
2023-04-03T06:39:25.668Z,100.00
2023-04-03T06:41:53.788Z,100.00
2023-04-03T06:44:30.399Z,100.00
2023-04-03T06:46:58.373Z,98.43
2023-04-03T06:49:26.298Z,94.92
2023-04-03T06:51:54.808Z,90.87
2023-04-03T06:54:22.974Z,87.87
2023-04-03T06:56:52.966Z,85.66
2023-04-03T06:59:21.646Z,84.59
2023-04-03T07:01:50.311Z,83.27
2023-04-03T07:04:20.638Z,78.96
2023-04-03T07:06:49.132Z,75.35
2023-04-03T07:09:17.733Z,77.93
2023-04-03T07:11:46.137Z,77.45
2023-04-03T07:14:18.015Z,78.25
2023-04-03T07:16:46.012Z,74.14
2023-04-03T07:19:16.704Z,75.26
2023-04-03T07:21:45.015Z,74.73
2023-04-03T07:24:16.199Z,72.97
2023-04-03T07:26:46.218Z,71.80
2023-04-03T07:29:15.724Z,69.46
2023-04-03T07:31:45.882Z,65.20
2023-04-03T07:34:14.097Z,65.24
2023-04-03T07:36:42.323Z,68.77
2023-04-03T07:39:10.548Z,72.36
2023-04-03T07:41:38.618Z,71.01
2023-04-03T07:44:10.648Z,74.42
2023-04-03T07:46:38.990Z,75.42
2023-04-03T07:49:09.019Z,79.43
2023-04-03T07:51:37.285Z,75.83
2023-04-03T07:54:06.053Z,70.01
2023-04-03T07:56:34.457Z,66.68
2023-04-03T07:59:05.051Z,66.36
2023-04-03T08:01:35.262Z,64.02
2023-04-03T08:04:03.805Z,64.89
2023-04-03T08:06:45.998Z,61.48
2023-04-03T08:09:16.488Z,57.83
2023-04-03T08:11:45.545Z,58.50
2023-04-03T08:14:17.654Z,57.96
2023-04-03T08:16:47.090Z,57.60
2023-04-03T08:19:25.598Z,56.11
2023-04-03T08:21:59.888Z,53.86
2023-04-03T08:24:27.986Z,54.15
2023-04-03T08:26:56.674Z,54.39
2023-04-03T08:29:24.909Z,52.51
2023-04-03T08:31:55.883Z,51.52
2023-04-03T08:34:23.970Z,49.46
2023-04-03T08:36:52.171Z,50.81
2023-04-03T08:39:21.797Z,52.61
2023-04-03T08:41:50.151Z,48.04
2023-04-03T08:44:28.189Z,43.40
2023-04-03T08:47:05.538Z,40.45
2023-04-03T08:49:35.864Z,42.61
2023-04-03T08:52:13.813Z,43.47
2023-04-03T08:57:43.859Z,47.83
2023-04-03T09:00:19.083Z,51.88
2023-04-03T09:02:54.592Z,48.91
2023-04-03T09:05:42.123Z,47.13
2023-04-03T09:12:02.280Z,42.60
2023-04-03T09:14:38.167Z,44.79
2023-04-03T09:14:51.121Z,44.16
2023-04-03T09:17:16.056Z,45.38
2023-04-03T09:19:57.059Z,47.82
2023-04-03T09:22:28.139Z,45.36
2023-04-03T09:25:00.999Z,41.89
2023-04-03T09:27:30.749Z,39.73
2023-04-03T09:30:01.268Z,38.77
2023-04-03T09:32:31.759Z,40.47
2023-04-03T09:35:19.188Z,41.25
2023-04-03T09:37:52.071Z,40.74
2023-04-03T09:40:37.021Z,36.88
2023-04-03T09:43:30.194Z,40.25
2023-04-03T09:46:20.930Z,40.68
2023-04-03T09:49:05.048Z,42.03
2023-04-03T09:51:35.988Z,43.60
2023-04-03T09:54:41.162Z,44.67
2023-04-03T09:57:12.762Z,44.56
2023-04-03T10:02:59.398Z,47.53
2023-04-03T10:05:39.575Z,46.79
2023-04-03T10:08:21.630Z,46.36
2023-04-03T10:11:09.238Z,45.44
2023-04-03T10:13:48.760Z,45.24
2023-04-03T10:16:25.443Z,44.11
2023-04-03T10:19:08.341Z,43.71
2023-04-03T10:21:46.458Z,41.54
2023-04-03T10:24:22.162Z,38.72
2023-04-03T10:26:59.202Z,41.26
2023-04-03T10:29:38.616Z,42.33
2023-04-03T10:32:25.224Z,42.23
2023-04-03T10:35:05.187Z,42.34
2023-04-03T10:37:49.324Z,42.36
2023-04-03T10:40:32.475Z,42.81
2023-04-03T10:43:08.545Z,43.21
2023-04-03T10:45:51.164Z,43.76
2023-04-03T10:48:35.696Z,44.62
2023-04-03T10:51:18.392Z,44.87
2023-04-03T10:53:54.433Z,41.22
2023-04-03T10:56:34.773Z,38.38
2023-04-03T10:59:18.311Z,40.09
2023-04-03T11:01:48.574Z,42.32
2023-04-03T11:04:22.105Z,41.02
2023-04-03T11:06:58.954Z,38.87
2023-04-03T11:09:29.866Z,39.21
2023-04-03T11:12:04.184Z,41.03
2023-04-03T11:14:35.804Z,42.24
2023-04-03T11:17:15.930Z,38.35
2023-04-03T11:19:50.410Z,39.03
2023-04-03T11:22:25.686Z,41.12
2023-04-03T11:25:04.518Z,45.15
2023-04-03T11:27:40.947Z,45.24
2023-04-03T11:30:19.087Z,43.28
2023-04-03T11:33:13.518Z,40.95
2023-04-03T11:35:46.283Z,38.09
2023-04-03T11:38:25.615Z,37.28
2023-04-03T11:40:56.382Z,36.47
2023-04-03T11:43:29.726Z,38.55
2023-04-03T11:46:01.988Z,39.03
2023-04-03T11:48:52.354Z,39.69
2023-04-03T11:51:50.945Z,40.21
2023-04-03T11:54:53.637Z,41.23
2023-04-03T11:58:08.260Z,42.61
2023-04-03T12:00:51.587Z,41.64
2023-04-03T12:03:59.997Z,42.67
2023-04-03T12:07:02.606Z,43.94
2023-04-03T12:09:35.823Z,44.67
2023-04-03T12:12:30.324Z,43.61
2023-04-03T12:15:20.061Z,43.60
2023-04-03T12:17:51.694Z,43.20
2023-04-03T12:20:57.393Z,43.07
2023-04-03T12:23:27.585Z,43.70
2023-04-03T12:26:05.017Z,43.28
2023-04-03T12:28:41.245Z,43.98
2023-04-03T12:31:12.330Z,45.89
2023-04-03T12:34:02.999Z,46.79
2023-04-03T12:36:43.093Z,47.34
2023-04-03T12:39:27.948Z,47.16
2023-04-03T12:42:11.016Z,46.80
2023-04-03T12:44:52.044Z,46.88
2023-04-03T12:47:26.483Z,46.15
2023-04-03T12:49:59.400Z,45.95
2023-04-03T12:52:37.485Z,45.09
2023-04-03T12:55:18.797Z,45.54
2023-04-03T12:57:47.682Z,45.60
2023-04-03T13:00:28.634Z,45.62
2023-04-03T13:02:57.230Z,46.14
2023-04-03T13:05:28.117Z,45.37
2023-04-03T13:08:03.101Z,43.66
2023-04-03T13:10:32.445Z,44.94
2023-04-03T13:13:09.839Z,45.21
2023-04-03T13:15:47.218Z,45.01
2023-04-03T13:18:29.367Z,43.98
2023-04-03T13:21:03.036Z,43.92
2023-04-03T13:23:32.531Z,43.91
2023-04-03T13:26:04.539Z,42.75
2023-04-03T13:28:33.981Z,42.23
2023-04-03T13:31:11.190Z,41.44
2023-04-03T13:33:40.200Z,42.35
2023-04-03T13:36:13.615Z,41.88
2023-04-03T13:38:41.970Z,42.29
2023-04-03T13:41:26.865Z,41.36
2023-04-03T13:44:00.633Z,41.08
2023-04-03T13:46:36.565Z,41.49
2023-04-03T13:49:20.182Z,41.83
2023-04-03T13:52:04.450Z,42.24
2023-04-03T13:54:38.831Z,42.32
2023-04-03T13:57:15.108Z,43.39
2023-04-03T13:59:46.883Z,43.00
2023-04-03T14:02:23.868Z,42.74
2023-04-03T14:04:59.728Z,42.66
2023-04-03T14:07:28.470Z,41.88
2023-04-03T14:09:59.065Z,42.19
2023-04-03T14:12:32.336Z,40.35
2023-04-03T14:15:04.805Z,40.24
2023-04-03T14:17:34.662Z,40.47
2023-04-03T14:20:03.022Z,39.89
2023-04-03T14:22:34.776Z,39.30
2023-04-03T14:25:03.067Z,39.86
2023-04-03T14:27:36.292Z,40.71
2023-04-03T14:30:06.971Z,40.80
2023-04-03T14:32:37.148Z,40.58
2023-04-03T14:35:05.951Z,41.25
2023-04-03T14:37:34.645Z,40.27
2023-04-03T14:40:06.076Z,40.00
2023-04-03T14:42:36.793Z,40.44
2023-04-03T14:45:08.039Z,40.90
2023-04-03T14:47:44.449Z,40.00
2023-04-03T14:50:22.227Z,40.85
2023-04-03T14:52:51.530Z,39.94
2023-04-03T14:55:22.171Z,39.80
2023-04-03T14:57:50.529Z,40.44
2023-04-03T15:00:22.788Z,39.21
2023-04-03T15:04:00.851Z,38.92
2023-04-03T15:06:29.071Z,38.98
2023-04-03T15:08:57.607Z,39.36
2023-04-03T15:11:27.719Z,40.18
2023-04-03T15:13:55.900Z,39.45
2023-04-03T15:16:32.026Z,39.46
2023-04-03T15:19:01.562Z,40.77
2023-04-03T15:21:30.108Z,39.86
2023-04-03T15:24:00.456Z,40.60
2023-04-03T15:26:30.269Z,40.12
2023-04-03T15:28:58.661Z,39.05
2023-04-03T15:31:27.167Z,40.20
2023-04-03T15:33:56.140Z,39.44
2023-04-03T15:36:34.230Z,38.45
2023-04-03T15:39:06.140Z,37.78
2023-04-03T15:41:34.328Z,38.74
2023-04-03T15:44:02.460Z,38.78
2023-04-03T15:46:34.481Z,38.72
2023-04-03T15:49:05.098Z,38.53
2023-04-03T15:51:34.639Z,39.57
2023-04-03T15:54:02.738Z,39.46
2023-04-03T15:56:31.036Z,39.86
2023-04-03T15:58:59.140Z,39.62
2023-04-03T16:01:29.561Z,39.25
2023-04-03T16:03:57.816Z,38.51
2023-04-03T16:06:27.138Z,39.09
2023-04-03T16:08:59.082Z,39.50
2023-04-03T16:11:28.194Z,39.83
2023-04-03T16:13:56.572Z,39.72
2023-04-03T16:16:26.947Z,40.63
2023-04-03T16:18:56.057Z,40.80
2023-04-03T16:21:24.951Z,40.66
2023-04-03T16:23:53.146Z,40.81
2023-04-03T16:26:23.169Z,40.67
2023-04-03T16:28:51.611Z,40.51
2023-04-03T16:31:23.698Z,40.89
2023-04-03T16:33:52.234Z,42.41
2023-04-03T16:36:20.278Z,42.86
2023-04-03T16:38:51.046Z,43.04
2023-04-03T16:41:23.240Z,43.74
2023-04-03T16:43:51.807Z,44.07
2023-04-03T16:46:20.552Z,43.87
2023-04-03T16:48:49.976Z,44.47
2023-04-03T16:51:18.126Z,45.05
2023-04-03T16:53:48.671Z,45.20
2023-04-03T16:56:17.262Z,45.86
2023-04-03T16:58:46.879Z,46.10
2023-04-03T17:01:16.334Z,47.25
2023-04-03T17:03:47.863Z,47.28
2023-04-03T17:06:20.915Z,47.82
2023-04-03T17:08:51.113Z,47.56
2023-04-03T17:11:28.769Z,47.91
2023-04-03T17:14:00.729Z,47.76
2023-04-03T17:16:30.037Z,48.34
2023-04-03T17:18:59.230Z,47.16
2023-04-03T17:21:29.589Z,48.50
2023-04-03T17:24:01.191Z,48.57
2023-04-03T17:26:31.804Z,49.14
2023-04-03T17:29:01.365Z,49.29
2023-04-03T17:31:29.628Z,49.37
2023-04-03T17:33:57.911Z,50.68
2023-04-03T17:36:26.066Z,50.75
2023-04-03T17:38:54.667Z,51.00
2023-04-03T17:41:23.391Z,51.97
2023-04-03T17:43:56.371Z,51.43
2023-04-03T17:46:26.845Z,51.81
2023-04-03T17:48:55.598Z,51.80
2023-04-03T17:51:25.291Z,51.47
2023-04-03T17:53:56.256Z,52.57
2023-04-03T17:56:28.141Z,51.86
2023-04-03T17:58:58.461Z,52.28
2023-04-03T18:01:29.670Z,53.01
2023-04-03T18:04:00.012Z,54.02
2023-04-03T18:06:31.757Z,53.74
2023-04-03T18:09:06.319Z,54.04
2023-04-03T18:11:37.603Z,54.19
2023-04-03T18:14:08.411Z,54.23
2023-04-03T18:16:40.204Z,54.93
2023-04-03T18:19:21.781Z,54.24
2023-04-03T18:21:52.493Z,55.10
2023-04-03T18:24:23.143Z,54.90
2023-04-03T18:26:54.933Z,55.29
2023-04-03T18:29:23.863Z,55.51
2023-04-03T18:31:56.761Z,56.17
2023-04-03T18:34:24.949Z,56.79
2023-04-03T18:36:53.547Z,56.39
2023-04-03T18:39:23.349Z,57.39
2023-04-03T18:41:53.563Z,57.09
2023-04-03T18:44:26.047Z,56.66
2023-04-03T18:46:56.909Z,58.16
2023-04-03T18:49:25.657Z,57.17
2023-04-03T18:51:56.217Z,57.35
2023-04-03T18:54:24.534Z,56.86
2023-04-03T18:56:52.624Z,56.98
2023-04-03T18:59:23.170Z,57.74
2023-04-03T19:01:51.212Z,57.13
2023-04-03T19:04:20.883Z,56.70
2023-04-03T19:06:54.109Z,57.33
2023-04-03T19:09:22.762Z,57.59
2023-04-03T19:11:53.523Z,58.35
2023-04-03T19:14:24.303Z,58.09
2023-04-03T19:16:54.760Z,58.98
2023-04-03T19:19:24.584Z,59.44
2023-04-03T19:21:53.144Z,59.44
2023-04-03T19:24:24.436Z,59.87
2023-04-03T19:26:53.132Z,60.00
2023-04-03T19:29:21.971Z,59.44
2023-04-03T19:31:50.669Z,59.71
2023-04-03T19:34:19.690Z,60.07
2023-04-03T19:36:49.385Z,59.75
2023-04-03T19:39:17.515Z,60.27
2023-04-03T19:41:48.628Z,60.63
2023-04-03T19:44:17.139Z,60.80
2023-04-03T19:46:51.285Z,61.27
2023-04-03T19:49:20.729Z,61.63
2023-04-03T19:51:50.332Z,62.40
2023-04-03T19:54:19.029Z,62.71
2023-04-03T19:56:47.566Z,62.31
2023-04-03T19:59:16.557Z,63.18
2023-04-03T20:05:01.362Z,64.35
2023-04-03T20:07:29.950Z,64.42
2023-04-03T20:10:01.085Z,64.65
2023-04-03T20:12:31.759Z,64.69
2023-04-03T20:14:59.956Z,64.70
2023-04-03T20:17:28.369Z,65.11
2023-04-03T20:20:01.415Z,65.87
2023-04-03T20:22:32.451Z,65.39
2023-04-03T20:25:06.386Z,65.53
2023-04-03T20:27:35.843Z,66.37
2023-04-03T20:30:04.508Z,67.13
2023-04-03T20:32:33.748Z,67.56
2023-04-03T20:35:04.604Z,67.81
2023-04-03T20:37:38.648Z,69.00
2023-04-03T20:40:09.105Z,68.75
2023-04-03T20:42:37.729Z,69.44
2023-04-03T20:45:08.458Z,69.48
2023-04-03T20:47:37.824Z,70.07
2023-04-03T20:50:06.783Z,69.85
2023-04-03T20:52:36.723Z,69.87
2023-04-03T20:55:06.480Z,70.48
2023-04-03T20:57:35.454Z,69.60
2023-04-03T21:00:05.352Z,69.85
2023-04-03T21:02:34.613Z,69.74
2023-04-03T21:05:06.259Z,70.61
2023-04-03T21:08:12.724Z,70.76
2023-04-03T21:11:18.526Z,70.65
2023-04-03T21:14:28.030Z,70.58
2023-04-03T21:16:56.422Z,70.18
2023-04-03T21:19:26.332Z,70.42
2023-04-03T21:21:55.098Z,71.11
2023-04-03T21:24:24.039Z,70.96
2023-04-03T21:26:54.813Z,70.62
2023-04-03T21:29:22.851Z,70.37
2023-04-03T21:31:53.862Z,71.54
2023-04-03T21:34:25.830Z,71.95
2023-04-03T21:36:55.895Z,72.74
2023-04-03T21:39:27.038Z,72.61
2023-04-03T21:41:55.425Z,73.21
2023-04-03T21:44:28.271Z,73.29
2023-04-03T21:46:56.846Z,72.77
2023-04-03T21:49:26.159Z,73.25
2023-04-03T21:51:55.977Z,73.78
2023-04-03T21:54:25.769Z,73.52
2023-04-03T21:56:54.110Z,74.00
2023-04-03T21:59:23.121Z,75.08
2023-04-03T22:01:53.714Z,74.75
2023-04-03T22:04:22.447Z,74.95
2023-04-03T22:06:51.162Z,73.99
2023-04-03T22:09:20.722Z,74.48
2023-04-03T22:11:48.998Z,74.75
2023-04-03T22:14:17.319Z,74.42
2023-04-03T22:16:47.800Z,75.75
2023-04-03T22:19:16.176Z,75.71
2023-04-03T22:21:44.161Z,75.47
2023-04-03T22:24:12.517Z,75.17
2023-04-03T22:26:44.424Z,75.61
2023-04-03T22:29:13.237Z,76.04
2023-04-03T22:31:42.377Z,76.13
2023-04-03T22:34:10.560Z,76.75
2023-04-03T22:36:38.804Z,76.80
2023-04-03T22:39:10.880Z,78.35
2023-04-03T22:41:39.555Z,77.51
2023-04-03T22:44:09.402Z,77.55
2023-04-03T22:46:37.590Z,77.47
2023-04-03T22:49:08.137Z,78.13
2023-04-03T22:51:36.436Z,78.98
2023-04-03T22:54:04.865Z,78.95
2023-04-03T22:56:35.688Z,79.80
2023-04-03T22:59:04.086Z,79.45
2023-04-03T23:01:39.181Z,79.17
2023-04-03T23:04:10.452Z,79.89
2023-04-03T23:06:38.711Z,78.87
2023-04-03T23:09:06.784Z,79.19
2023-04-03T23:11:35.107Z,80.03
2023-04-03T23:14:06.008Z,80.02
2023-04-03T23:16:38.371Z,80.43
2023-04-03T23:19:08.488Z,80.68
2023-04-03T23:21:36.541Z,80.82
2023-04-03T23:24:05.026Z,79.79
2023-04-03T23:26:33.233Z,80.24
2023-04-03T23:29:01.859Z,79.99
2023-04-03T23:31:50.200Z,80.12
2023-04-03T23:34:18.265Z,80.57
2023-04-03T23:36:46.231Z,80.73
2023-04-03T23:39:14.292Z,79.82
2023-04-03T23:41:44.342Z,80.26
2023-04-03T23:44:17.614Z,79.91
2023-04-03T23:46:49.613Z,79.68
2023-04-03T23:49:17.738Z,79.10
2023-04-03T23:51:46.193Z,80.15
2023-04-03T23:54:14.392Z,80.07
2023-04-03T23:56:42.489Z,80.00
2023-04-03T23:59:10.681Z,80.13
